Time;durP1;ratioP1;P1;durP2;ratioP2;P2;SDS_P1;SDS_P2;PMS_P1;PMS_P2;Temp;Humidity;BMP_temperature;BMP_pressure;BME280_temperature;BME280_humidity;BME280_pressure;Samples;Min_cycle;Max_cycle;Signal;HPM_P1;HPM_P2
2022/10/18 00:01:46;;;;;;;1999.90;999.90;;;;;;;11.49;100.00;99208.28;4974259;28;20035;-73
2022/10/18 00:04:11;;;;;;;1999.90;999.90;;;;;;;11.56;100.00;99215.13;4975550;28;20081;-73
2022/10/18 00:06:37;;;;;;;1999.90;999.90;;;;;;;11.57;100.00;99214.06;4972902;28;20059;-73
2022/10/18 00:09:03;;;;;;;1999.90;999.90;;;;;;;11.38;100.00;99201.94;4971718;28;20039;-73
2022/10/18 00:11:28;;;;;;;1999.90;999.90;;;;;;;11.24;100.00;99204.34;4971748;28;20063;-73
2022/10/18 00:13:55;;;;;;;1999.90;999.90;;;;;;;11.17;100.00;99202.97;4971597;28;20031;-73
2022/10/18 00:16:20;;;;;;;1999.90;999.90;;;;;;;11.17;100.00;99194.75;4971991;28;20109;-73
2022/10/18 00:18:47;;;;;;;1999.90;999.90;;;;;;;11.38;100.00;99196.47;4971826;28;20078;-73
2022/10/18 00:21:17;;;;;;;1999.90;999.90;;;;;;;11.57;100.00;99194.03;4971441;28;20034;-73
2022/10/18 00:23:44;;;;;;;1999.90;999.90;;;;;;;11.56;100.00;99189.69;4971816;28;20062;-73
2022/10/18 00:26:16;;;;;;;1999.90;999.90;;;;;;;11.42;100.00;99196.75;4971687;28;20137;-74
2022/10/18 00:28:42;;;;;;;1999.90;999.90;;;;;;;11.41;100.00;99182.22;4971280;28;20121;-73
2022/10/18 00:31:27;;;;;;;1999.90;999.90;;;;;;;11.56;100.00;99179.50;4971704;28;20070;-74
2022/10/18 00:33:56;;;;;;;1999.90;999.90;;;;;;;11.47;100.00;99181.16;4971342;28;20062;-73
2022/10/18 00:36:23;;;;;;;1999.90;999.90;;;;;;;11.19;100.00;99176.97;4971558;28;20035;-74
2022/10/18 00:38:48;;;;;;;1999.90;999.90;;;;;;;11.18;100.00;99169.03;4971511;28;20067;-74
2022/10/18 00:41:18;;;;;;;1999.90;999.90;;;;;;;11.31;100.00;99163.03;4971520;28;20023;-73
2022/10/18 00:44:10;;;;;;;1999.90;999.90;;;;;;;11.34;100.00;99170.69;4971322;28;20023;-74
2022/10/18 00:46:40;;;;;;;1999.90;999.90;;;;;;;11.50;100.00;99164.16;4977973;28;20412;-74
2022/10/18 00:49:10;;;;;;;1999.90;999.90;;;;;;;11.44;100.00;99173.47;4970948;28;20543;-73
2022/10/18 00:51:43;;;;;;;1999.90;999.90;;;;;;;11.39;100.00;99169.91;4971351;28;20382;-73
2022/10/18 00:54:11;;;;;;;1999.90;999.90;;;;;;;11.24;100.00;99168.75;4971568;28;20539;-73
2022/10/18 00:56:36;;;;;;;1999.90;999.90;;;;;;;11.24;100.00;99173.44;4971144;28;20038;-73
2022/10/18 00:59:02;;;;;;;1999.90;999.90;;;;;;;11.17;100.00;99170.94;4971466;28;20408;-73
2022/10/18 01:01:27;;;;;;;1999.90;999.90;;;;;;;11.27;100.00;99170.16;4971314;28;20035;-73
2022/10/18 01:03:53;;;;;;;1999.90;999.90;;;;;;;11.14;100.00;99160.53;4971275;28;20027;-73
2022/10/18 01:06:19;;;;;;;1999.90;999.90;;;;;;;11.01;100.00;99157.47;4971588;28;20022;-73
2022/10/18 01:09:11;;;;;;;1999.90;999.90;;;;;;;11.00;100.00;99159.38;4971339;28;20560;-73
2022/10/18 01:11:54;;;;;;;1999.90;999.90;;;;;;;10.97;100.00;99153.59;4974747;28;20062;-73
2022/10/18 01:14:22;;;;;;;1999.90;999.90;;;;;;;10.86;100.00;99143.72;4974787;28;20039;-74
2022/10/18 01:17:04;;;;;;;1999.90;999.90;;;;;;;10.89;100.00;99143.19;4975273;28;20027;-74
2022/10/18 01:19:48;;;;;;;1999.90;999.90;;;;;;;10.85;100.00;99145.63;4974585;28;20031;-74
2022/10/18 01:22:23;;;;;;;1999.90;999.90;;;;;;;10.86;100.00;99141.81;4976178;28;20038;-74
2022/10/18 01:25:06;;;;;;;1999.90;999.90;;;;;;;10.80;100.00;99144.78;4981609;28;20030;-74
2022/10/18 01:27:53;;;;;;;1999.90;999.90;;;;;;;11.09;100.00;99145.97;4976165;28;20047;-74
2022/10/18 01:30:41;;;;;;;1999.90;999.90;;;;;;;11.03;100.00;99136.09;4974187;28;20026;-75
2022/10/18 01:33:22;;;;;;;1999.90;999.90;;;;;;;11.14;100.00;99140.53;4974272;28;20440;-73
2022/10/18 01:36:04;;;;;;;1999.90;999.90;;;;;;;11.24;100.00;99135.09;4974467;28;20043;-73
2022/10/18 01:38:32;;;;;;;1999.90;999.90;;;;;;;11.36;100.00;99135.66;4974175;28;20035;-73
2022/10/18 01:41:01;;;;;;;1999.90;999.90;;;;;;;11.39;100.00;99137.03;4974207;28;20026;-74
2022/10/18 01:43:27;;;;;;;1999.90;999.90;;;;;;;11.63;100.00;99130.75;4973914;28;20377;-73
2022/10/18 01:45:54;;;;;;;1999.90;999.90;;;;;;;11.47;100.00;99126.34;4974292;28;20043;-73
2022/10/18 01:48:21;;;;;;;1999.90;999.90;;;;;;;11.37;100.00;99126.31;4974512;28;20432;-73
2022/10/18 01:50:47;;;;;;;1999.90;999.90;;;;;;;11.60;100.00;99128.56;4967473;28;20081;-72
2022/10/18 01:53:28;;;;;;;1999.90;999.90;;;;;;;11.78;100.00;99119.00;4960282;28;20027;-74
2022/10/18 01:56:06;;;;;;;1999.90;999.90;;;;;;;11.77;100.00;99112.72;4954553;29;20172;-73
2022/10/18 01:59:09;;;;;;;1999.90;999.90;;;;;;;11.71;100.00;99118.47;4954457;29;20078;-73
2022/10/18 02:02:01;;;;;;;1999.90;999.90;;;;;;;11.61;100.00;99118.44;4953541;28;20051;-73
2022/10/18 02:04:35;;;;;;;1999.90;999.90;;;;;;;11.55;100.00;99114.03;4954378;29;20063;-74
2022/10/18 02:07:24;;;;;;;1999.90;999.90;;;;;;;11.61;100.00;99115.69;4954056;29;20055;-73
2022/10/18 02:10:00;;;;;;;1999.90;999.90;;;;;;;11.67;100.00;99118.16;4954125;28;20093;-73
2022/10/18 02:12:28;;;;;;;1999.90;999.90;;;;;;;11.71;100.00;99108.31;4954250;29;20449;-74
2022/10/18 02:14:56;;;;;;;1999.90;999.90;;;;;;;11.74;100.00;99107.78;4954357;29;20035;-74
2022/10/18 02:17:24;;;;;;;1999.90;999.90;;;;;;;11.84;100.00;99106.13;4954656;28;20031;-73
2022/10/18 02:19:54;;;;;;;1999.90;999.90;;;;;;;11.76;100.00;99107.50;4955220;28;20047;-73
2022/10/18 02:22:24;;;;;;;1999.90;999.90;;;;;;;11.75;100.00;99109.41;4953983;29;20035;-74
2022/10/18 02:24:53;;;;;;;1999.90;999.90;;;;;;;11.76;100.00;99111.06;4953683;28;20093;-74
2022/10/18 02:27:19;;;;;;;1999.90;999.90;;;;;;;11.71;100.00;99108.31;4953957;29;20039;-72
2022/10/18 02:29:45;;;;;;;1999.90;999.90;;;;;;;11.65;100.00;99108.56;4953925;29;20035;-73
2022/10/18 02:32:32;;;;;;;1999.90;999.90;;;;;;;11.63;100.00;99108.00;4953987;29;20034;-73
2022/10/18 02:35:03;;;;;;;1999.90;999.90;;;;;;;11.61;100.00;99101.97;4953888;28;20082;-72
2022/10/18 02:37:34;;;;;;;1999.90;999.90;;;;;;;11.62;100.00;99109.91;4953801;29;20469;-73
2022/10/18 02:40:00;;;;;;;1999.90;999.90;;;;;;;11.71;100.00;99091.06;4959083;28;20090;-72
2022/10/18 02:42:35;;;;;;;1999.90;999.90;;;;;;;11.76;100.00;99100.09;4973183;28;20074;-73
2022/10/18 02:45:02;;;;;;;1999.90;999.90;;;;;;;11.68;100.00;99108.81;4972797;28;20066;-74
2022/10/18 02:47:27;;;;;;;1999.90;999.90;;;;;;;11.64;100.00;99110.47;4973255;28;20506;-74
2022/10/18 02:49:52;;;;;;;1999.90;999.90;;;;;;;11.51;100.00;99108.28;4973042;28;20039;-74
2022/10/18 02:52:17;;;;;;;1999.90;999.90;;;;;;;11.44;100.00;99107.72;4972909;28;20030;-73
2022/10/18 02:54:43;;;;;;;1999.90;999.90;;;;;;;11.41;100.00;99100.03;4972887;28;20047;-74
2022/10/18 02:57:08;;;;;;;1999.90;999.90;;;;;;;11.39;100.00;99104.97;4972861;28;20118;-74
2022/10/18 02:59:33;;;;;;;1999.90;999.90;;;;;;;11.30;100.00;99101.13;4972599;28;20125;-73
2022/10/18 03:01:59;;;;;;;1999.90;999.90;;;;;;;11.46;100.00;99100.06;4972828;28;20126;-73
2022/10/18 03:04:24;;;;;;;1999.90;999.90;;;;;;;11.58;100.00;99105.28;4972743;28;20035;-73
2022/10/18 03:06:49;;;;;;;1999.90;999.90;;;;;;;11.43;100.00;99105.25;4972387;28;20053;-74
2022/10/18 03:09:14;;;;;;;1999.90;999.90;;;;;;;11.29;100.00;99099.47;4971323;28;20034;-73
2022/10/18 03:11:40;;;;;;;1999.90;999.90;;;;;;;11.20;100.00;99103.84;4972485;28;20019;-74
2022/10/18 03:14:05;;;;;;;1999.90;999.90;;;;;;;11.13;100.00;99103.28;4972453;28;20030;-74
2022/10/18 03:16:30;;;;;;;1999.90;999.90;;;;;;;11.16;100.00;99097.25;4972406;28;20362;-74
2022/10/18 03:18:56;;;;;;;1999.90;999.90;;;;;;;11.12;100.00;99098.91;4972657;28;20126;-74
2022/10/18 03:21:21;;;;;;;1999.90;999.90;;;;;;;11.11;100.00;99097.25;4972423;28;20241;-73
2022/10/18 03:23:46;;;;;;;1999.90;999.90;;;;;;;11.38;100.00;99100.59;4972432;28;20026;-73
2022/10/18 03:26:12;;;;;;;1999.90;999.90;;;;;;;11.29;100.00;99104.97;4971150;28;20033;-73
2022/10/18 03:28:37;;;;;;;1999.90;999.90;;;;;;;11.31;100.00;99102.75;4972587;28;20026;-73
2022/10/18 03:31:03;;;;;;;1999.90;999.90;;;;;;;11.23;100.00;99104.13;4975821;28;20526;-74
2022/10/18 03:33:30;;;;;;;1999.90;999.90;;;;;;;11.18;100.00;99104.09;4975890;28;20450;-74
2022/10/18 03:35:55;;;;;;;1999.90;999.90;;;;;;;11.14;100.00;99102.19;4978620;28;20023;-73
2022/10/18 03:38:21;;;;;;;1999.90;999.90;;;;;;;11.19;100.00;99104.94;4974309;28;20019;-74
2022/10/18 03:40:47;;;;;;;1999.90;999.90;;;;;;;11.31;100.00;99108.25;4971000;28;20058;-73
2022/10/18 03:43:12;;;;;;;1999.90;999.90;;;;;;;11.32;100.00;99114.53;4972037;28;20019;-74
2022/10/18 03:45:38;;;;;;;1999.90;999.90;;;;;;;11.31;100.00;99102.75;4977106;28;20088;-73
2022/10/18 03:48:04;;;;;;;1999.90;999.90;;;;;;;11.42;100.00;99114.56;4991561;28;20125;-74
2022/10/18 03:50:29;;;;;;;1999.90;999.90;;;;;;;11.53;100.00;99110.72;4991492;28;20105;-73
2022/10/18 03:52:54;;;;;;;1999.90;999.90;;;;;;;11.50;100.00;99117.59;4991388;28;20034;-74
2022/10/18 03:55:20;;;;;;;1999.90;999.90;;;;;;;11.52;100.00;99120.06;4991453;28;20023;-73
2022/10/18 03:57:46;;;;;;;1999.90;999.90;;;;;;;11.42;100.00;99118.13;4993085;28;20081;-74
2022/10/18 04:00:11;;;;;;;1999.90;999.90;;;;;;;11.41;100.00;99112.91;4993244;28;20794;-74
2022/10/18 04:02:37;;;;;;;1999.90;999.90;;;;;;;11.50;100.00;99116.75;4993265;28;20023;-74
2022/10/18 04:05:02;;;;;;;1999.90;999.90;;;;;;;11.41;100.00;99112.91;4992758;28;20034;-74
2022/10/18 04:07:28;;;;;;;1999.90;999.90;;;;;;;11.26;100.00;99110.97;4990976;28;20077;-74
2022/10/18 04:09:53;;;;;;;1999.90;999.90;;;;;;;11.32;100.00;99109.91;4990932;28;20074;-73
2022/10/18 04:12:18;;;;;;;1999.90;999.90;;;;;;;11.18;100.00;99109.59;4976058;28;20045;-73
2022/10/18 04:14:44;;;;;;;1999.90;999.90;;;;;;;11.30;100.00;99109.34;4970911;28;20429;-74
2022/10/18 04:17:09;;;;;;;1999.90;999.90;;;;;;;11.26;100.00;99113.72;4972213;28;20039;-74
2022/10/18 04:19:34;;;;;;;1999.90;999.90;;;;;;;11.28;100.00;99106.03;4971339;28;20030;-74
2022/10/18 04:22:00;;;;;;;1999.90;999.90;;;;;;;11.27;100.00;99107.16;4971680;28;20092;-74
2022/10/18 04:24:25;;;;;;;1999.90;999.90;;;;;;;11.20;100.00;99098.38;4971785;28;20035;-74
2022/10/18 04:26:50;;;;;;;1999.90;999.90;;;;;;;11.26;100.00;99100.84;4971622;28;20476;-73
2022/10/18 04:29:16;;;;;;;1999.90;999.90;;;;;;;11.32;100.00;99101.69;4971733;28;20035;-74
2022/10/18 04:31:41;;;;;;;1999.90;999.90;;;;;;;11.35;100.00;99103.88;4971633;28;20037;-73
2022/10/18 04:34:08;;;;;;;1999.90;999.90;;;;;;;11.33;100.00;99094.28;4971733;28;20031;-73
2022/10/18 04:36:33;;;;;;;1999.90;999.90;;;;;;;11.25;100.00;99090.97;4971702;28;20023;-74
2022/10/18 04:38:59;;;;;;;1999.90;999.90;;;;;;;11.22;100.00;99087.97;4976297;28;20117;-74
2022/10/18 04:41:24;;;;;;;1999.90;999.90;;;;;;;11.22;100.00;99087.97;4974831;28;20098;-74
2022/10/18 04:43:50;;;;;;;1999.90;999.90;;;;;;;11.24;100.00;99080.31;4981644;28;20037;-73
2022/10/18 04:46:15;;;;;;;1999.90;999.90;;;;;;;11.31;100.00;99091.00;4979505;28;20034;-72
2022/10/18 04:48:40;;;;;;;1999.90;999.90;;;;;;;11.34;100.00;99094.00;4984123;28;20392;-74
2022/10/18 04:51:05;;;;;;;1999.90;999.90;;;;;;;11.38;100.00;99095.09;4984466;28;20058;-73
2022/10/18 04:53:31;;;;;;;1999.90;999.90;;;;;;;11.39;100.00;99088.53;4981169;28;20022;-73
2022/10/18 04:55:56;;;;;;;1999.90;999.90;;;;;;;11.39;100.00;99083.06;4963418;28;20045;-73
2022/10/18 04:58:22;;;;;;;1999.90;999.90;;;;;;;11.35;100.00;99090.19;4980218;28;20521;-74
2022/10/18 05:00:48;;;;;;;1999.90;999.90;;;;;;;11.33;100.00;99086.06;4981092;28;20027;-72
2022/10/18 05:03:13;;;;;;;1999.90;999.90;;;;;;;11.41;100.00;99082.78;4986531;28;20498;-73
2022/10/18 05:05:39;;;;;;;1999.90;999.90;;;;;;;11.41;100.00;99080.88;4982254;28;20116;-75
2022/10/18 05:08:04;;;;;;;1999.90;999.90;;;;;;;11.34;100.00;99077.56;4973260;28;20048;-74
2022/10/18 05:10:30;;;;;;;1999.90;999.90;;;;;;;11.40;100.00;99081.97;4972217;28;20039;-74
2022/10/18 05:12:55;;;;;;;1999.90;999.90;;;;;;;11.44;100.00;99083.06;4978188;28;20366;-74
2022/10/18 05:15:20;;;;;;;1999.90;999.90;;;;;;;11.42;100.00;99076.22;4984968;28;20551;-75
2022/10/18 05:17:46;;;;;;;1999.90;999.90;;;;;;;11.41;100.00;99075.38;4980621;28;20026;-74
2022/10/18 05:20:11;;;;;;;1999.90;999.90;;;;;;;11.42;100.00;99082.53;4976929;28;20042;-74
2022/10/18 05:22:36;;;;;;;1999.90;999.90;;;;;;;11.42;100.00;99082.53;4974172;28;20113;-74
2022/10/18 05:25:02;;;;;;;1999.90;999.90;;;;;;;11.39;100.00;99083.06;4980550;28;20126;-75
2022/10/18 05:27:28;;;;;;;1999.90;999.90;;;;;;;11.37;100.00;99078.97;4983465;28;20443;-74
2022/10/18 05:29:53;;;;;;;1999.90;999.90;;;;;;;11.36;100.00;99082.78;4982859;28;20042;-75
2022/10/18 05:32:19;;;;;;;1999.90;999.90;;;;;;;11.27;100.00;99077.03;4977362;28;20532;-74
2022/10/18 05:34:44;;;;;;;1999.90;999.90;;;;;;;11.29;100.00;99080.31;4977720;28;20093;-74
2022/10/18 05:37:10;;;;;;;1999.90;999.90;;;;;;;11.28;100.00;99084.97;4982908;28;20037;-74
2022/10/18 05:39:36;;;;;;;1999.90;999.90;;;;;;;11.25;100.00;99080.03;4984491;28;20037;-76
2022/10/18 05:42:02;;;;;;;1999.90;999.90;;;;;;;11.21;100.00;99081.66;4979420;28;20130;-76
2022/10/18 05:44:27;;;;;;;1999.90;999.90;;;;;;;11.31;100.00;99080.06;4957195;28;20027;-76
2022/10/18 05:46:52;;;;;;;1999.90;999.90;;;;;;;11.32;100.00;99077.03;4959636;28;20024;-76
2022/10/18 05:49:18;;;;;;;1999.90;999.90;;;;;;;11.42;100.00;99073.47;4961215;29;20579;-77
2022/10/18 05:51:43;;;;;;;1999.90;999.90;;;;;;;11.35;100.00;99075.66;4956570;29;20031;-73
2022/10/18 05:54:12;;;;;;;1999.90;999.90;;;;;;;11.40;100.00;99073.75;4978743;28;20038;-74
2022/10/18 05:56:40;;;;;;;1999.90;999.90;;;;;;;11.52;100.00;99068.00;4992168;28;20085;-72
2022/10/18 05:59:10;;;;;;;1999.90;999.90;;;;;;;11.52;100.00;99071.56;4992949;28;20034;-73
2022/10/18 06:01:37;;;;;;;1999.90;999.90;;;;;;;11.46;100.00;99071.84;4992775;28;20419;-73
2022/10/18 06:04:03;;;;;;;1999.90;999.90;;;;;;;11.36;100.00;99075.41;4993065;28;20495;-73
2022/10/18 06:06:29;;;;;;;1999.90;999.90;;;;;;;11.31;100.00;99080.84;4992688;28;20027;-73
2022/10/18 06:08:55;;;;;;;1999.90;999.90;;;;;;;11.35;100.00;99081.97;4992701;28;20498;-73
2022/10/18 06:11:20;;;;;;;1999.90;999.90;;;;;;;11.36;100.00;99075.41;4992945;28;20038;-74
2022/10/18 06:13:47;;;;;;;1999.90;999.90;;;;;;;11.36;100.00;99072.66;4992947;28;20472;-75
2022/10/18 06:16:15;;;;;;;1999.90;999.90;;;;;;;11.48;100.00;99069.63;4992636;28;20022;-74
2022/10/18 06:18:41;;;;;;;1999.90;999.90;;;;;;;11.41;100.00;99080.88;4993081;28;20022;-76
2022/10/18 06:21:07;;;;;;;1999.90;999.90;;;;;;;11.45;100.00;99081.16;4992613;28;20026;-75
2022/10/18 06:23:33;;;;;;;1999.90;999.90;;;;;;;11.41;100.00;99074.56;4973397;28;20066;-75
2022/10/18 06:26:03;;;;;;;1999.90;999.90;;;;;;;11.54;100.00;99080.31;4956511;28;20507;-75
2022/10/18 06:28:29;;;;;;;1999.90;999.90;;;;;;;11.57;100.00;99084.44;4975562;28;20097;-74
2022/10/18 06:30:56;;;;;;;1999.90;999.90;;;;;;;11.61;100.00;99083.63;4991742;28;20488;-74
2022/10/18 06:33:22;;;;;;;1999.90;999.90;;;;;;;11.57;100.00;99079.78;4992227;28;20451;-74
2022/10/18 06:35:59;;;;;;;1999.90;999.90;;;;;;;11.62;100.00;99074.28;4992478;28;20037;-72
2022/10/18 06:38:26;;;;;;;1999.90;999.90;;;;;;;11.64;100.00;99074.84;4992082;28;20030;-74
2022/10/18 06:40:52;;;;;;;1999.90;999.90;;;;;;;11.59;100.00;99074.84;4992298;28;20113;-73
2022/10/18 06:43:17;;;;;;;1999.90;999.90;;;;;;;11.54;100.00;99080.31;4991281;28;20113;-75
2022/10/18 06:45:42;;;;;;;1999.90;999.90;;;;;;;11.60;100.00;99087.44;4992418;28;20447;-73
2022/10/18 06:48:08;;;;;;;1999.90;999.90;;;;;;;11.62;100.00;99085.25;4992561;28;20129;-74
2022/10/18 06:50:34;;;;;;;1999.90;999.90;;;;;;;11.64;100.00;99079.50;4992210;28;20081;-74
2022/10/18 06:53:00;;;;;;;1999.90;999.90;;;;;;;11.65;100.00;99081.16;4991917;28;20132;-75
2022/10/18 06:55:25;;;;;;;1999.90;999.90;;;;;;;11.70;100.00;99084.75;4992352;28;20054;-75
2022/10/18 06:57:52;;;;;;;1999.90;999.90;;;;;;;11.79;100.00;99088.56;4993911;28;20751;-74
2022/10/18 07:00:17;;;;;;;1999.90;999.90;;;;;;;11.78;100.00;99091.56;4995833;28;20025;-74
2022/10/18 07:02:42;;;;;;;1999.90;999.90;;;;;;;11.69;100.00;99098.69;4997236;28;20031;-74
2022/10/18 07:05:08;;;;;;;1999.90;999.90;;;;;;;11.78;100.00;99103.38;4994751;28;20027;-73
2022/10/18 07:07:34;;;;;;;1999.90;999.90;;;;;;;11.82;100.00;99104.47;4994400;28;20048;-74
2022/10/18 07:09:59;;;;;;;1999.90;999.90;;;;;;;11.89;100.00;99095.16;4992319;28;20034;-73
2022/10/18 07:12:24;;;;;;;1999.90;999.90;;;;;;;11.90;100.00;99100.38;4992326;28;20062;-73
2022/10/18 07:14:50;;;;;;;1999.90;999.90;;;;;;;11.94;100.00;99101.44;4994117;28;20046;-74
2022/10/18 07:17:15;;;;;;;1999.90;999.90;;;;;;;11.91;100.00;99103.91;4995824;28;20057;-75
2022/10/18 07:19:40;;;;;;;1999.90;999.90;;;;;;;11.82;100.00;99101.72;4998363;28;20018;-74
2022/10/18 07:22:06;;;;;;;1999.90;999.90;;;;;;;11.89;100.00;99106.13;4995352;28;20038;-74
2022/10/18 07:24:31;;;;;;;1999.90;999.90;;;;;;;11.95;100.00;99107.75;4994860;28;20042;-76
2022/10/18 07:26:56;;;;;;;1999.90;999.90;;;;;;;11.98;100.00;99107.19;4993424;28;20014;-74
2022/10/18 07:29:22;;;;;;;1999.90;999.90;;;;;;;12.01;100.00;99106.66;4996669;28;20022;-74
2022/10/18 07:31:47;;;;;;;1999.90;999.90;;;;;;;11.98;100.00;99105.28;4997418;28;20066;-74
2022/10/18 07:34:13;;;;;;;1999.90;999.90;;;;;;;12.01;100.00;99107.47;4994670;28;20518;-75
2022/10/18 07:36:39;;;;;;;1999.90;999.90;;;;;;;12.00;100.00;99105.00;4995705;28;20038;-74
2022/10/18 07:39:04;;;;;;;1999.90;999.90;;;;;;;11.98;100.00;99101.72;4993866;28;20598;-75
2022/10/18 07:41:32;;;;;;;1999.90;999.90;;;;;;;12.08;100.00;99107.19;4992389;28;20068;-73
2022/10/18 07:43:58;;;;;;;1999.90;999.90;;;;;;;12.19;100.00;99108.81;4992020;28;20027;-73
2022/10/18 07:46:23;;;;;;;1999.90;999.90;;;;;;;12.17;100.00;99103.63;4991973;28;20039;-74
2022/10/18 07:48:49;;;;;;;1999.90;999.90;;;;;;;12.17;100.00;99111.00;4992330;28;20034;-75
2022/10/18 07:51:15;;;;;;;1999.90;999.90;;;;;;;12.21;100.00;99117.59;4991810;28;20139;-73
2022/10/18 07:53:41;;;;;;;1999.90;999.90;;;;;;;12.19;100.00;99115.13;4994584;28;20037;-75
2022/10/18 07:56:14;;;;;;;1999.90;999.90;;;;;;;12.27;100.00;99119.22;4998500;28;20034;-74
2022/10/18 07:58:39;;;;;;;1999.90;999.90;;;;;;;12.28;100.00;99109.88;4997278;28;20030;-74
2022/10/18 08:01:07;;;;;;;1999.90;999.90;;;;;;;12.43;100.00;99115.34;5001710;28;20036;-74
2022/10/18 08:03:33;;;;;;;1999.90;999.90;;;;;;;12.57;100.00;99112.81;4999752;28;20184;-73
2022/10/18 08:05:58;;;;;;;1999.90;999.90;;;;;;;12.64;100.00;99099.63;4991223;28;20034;-74
2022/10/18 08:08:24;;;;;;;1999.90;999.90;;;;;;;12.72;100.00;99108.09;4990987;28;20050;-74
2022/10/18 08:10:51;;;;;;;1999.90;999.90;;;;;;;12.79;100.00;99102.31;4991263;28;20023;-73
2022/10/18 08:13:17;;;;;;;1999.90;999.90;;;;;;;12.97;100.00;99109.13;4991278;28;20034;-74
2022/10/18 08:15:42;;;;;;;1999.90;999.90;;;;;;;12.81;100.00;99098.19;4991266;28;20030;-73
2022/10/18 08:18:08;;;;;;;1999.90;999.90;;;;;;;12.78;100.00;99101.47;4992418;28;20448;-75
2022/10/18 08:20:35;;;;;;;1999.90;999.90;;;;;;;12.45;100.00;99101.34;4995545;28;20476;-74
2022/10/18 08:23:02;;;;;;;1999.90;999.90;;;;;;;12.53;100.00;99095.28;4995116;28;20062;-73
2022/10/18 08:25:28;;;;;;;1999.90;999.90;;;;;;;12.82;100.00;99088.84;4995102;28;20080;-74
2022/10/18 08:27:53;;;;;;;1999.90;999.90;;;;;;;12.67;100.00;99088.09;4995018;28;20126;-74
2022/10/18 08:30:19;;;;;;;1999.90;999.90;;;;;;;12.78;100.00;99082.25;4995019;28;20129;-75
2022/10/18 08:32:44;;;;;;;1999.90;999.90;;;;;;;12.87;100.00;99085.25;4995197;28;20033;-74
2022/10/18 08:35:09;;;;;;;1999.90;999.90;;;;;;;12.81;100.00;99089.94;4994926;28;20105;-74
2022/10/18 08:37:35;;;;;;;1999.90;999.90;;;;;;;12.77;100.00;99082.56;4995096;28;20077;-74
2022/10/18 08:40:00;;;;;;;1999.90;999.90;;;;;;;12.71;100.00;99084.50;4995023;28;20018;-74
2022/10/18 08:42:38;;;;;;;1999.90;999.90;;;;;;;12.68;100.00;99090.56;4994879;28;20054;-75
2022/10/18 08:45:04;;;;;;;1999.90;999.90;;;;;;;12.56;100.00;99078.25;4994922;28;20019;-75
2022/10/18 08:47:35;;;;;;;1999.90;999.90;;;;;;;12.93;100.00;99080.56;4994124;28;20034;-74
2022/10/18 08:50:04;;;;;;;1999.90;999.90;;;;;;;13.20;100.00;99080.97;4995263;28;20061;-74
2022/10/18 08:52:57;;;;;;;1999.90;999.90;;;;;;;13.15;100.00;99075.53;4994743;28;20035;-75
2022/10/18 08:55:35;;;;;;;1999.90;999.90;;;;;;;12.99;100.00;99080.25;4994556;28;20027;-73
2022/10/18 08:58:04;;;;;;;1999.90;999.90;;;;;;;13.05;100.00;99070.06;4994382;28;20018;-74
2022/10/18 09:00:33;;;;;;;1999.90;999.90;;;;;;;13.23;100.00;99063.91;4994332;28;20550;-74
2022/10/18 09:03:23;;;;;;;1999.90;999.90;;;;;;;13.43;100.00;99069.28;4994506;28;20113;-74
2022/10/18 09:05:51;;;;;;;1999.90;999.90;;;;;;;13.43;100.00;99069.28;4994252;28;20035;-73
2022/10/18 09:08:19;;;;;;;1999.90;999.90;;;;;;;13.44;100.00;99059.91;4993915;28;20109;-74
2022/10/18 09:11:25;;;;;;;1999.90;999.90;;;;;;;13.70;100.00;99066.84;4993107;28;20476;-74
2022/10/18 09:14:12;;;;;;;1999.90;999.90;;;;;;;13.66;100.00;99071.28;4990899;28;20074;-74
2022/10/18 09:16:53;;;;;;;1999.90;999.90;;;;;;;13.35;100.00;99070.69;4994251;28;20718;-74
2022/10/18 09:19:27;;;;;;;1999.90;999.90;;;;;;;13.39;100.00;99068.19;4994442;28;20121;-75
2022/10/18 09:21:55;;;;;;;1999.90;999.90;;;;;;;13.38;100.00;99069.31;4993915;28;20480;-73
2022/10/18 09:24:26;;;;;;;1999.90;999.90;;;;;;;13.26;100.00;99068.84;4994160;28;20046;-74
2022/10/18 09:26:57;;;;;;;1999.90;999.90;;;;;;;13.44;100.00;99059.91;4993965;28;20417;-73
2022/10/18 09:29:38;;;;;;;1999.90;999.90;;;;;;;13.61;100.00;99054.00;4963117;28;20031;-75
2022/10/18 09:32:22;;;;;;;1999.90;999.90;;;;;;;13.55;100.00;99056.00;4957519;29;20047;-75
2022/10/18 09:34:56;;;;;;;1999.90;999.90;;;;;;;13.80;100.00;99057.69;4956749;28;20524;-75
2022/10/18 09:37:23;;;;;;;1999.90;999.90;;;;;;;14.02;100.00;99055.28;4955510;28;20035;-75
2022/10/18 09:39:53;;;;;;;1999.90;999.90;;;;;;;14.21;100.00;99053.44;4955141;28;20039;-74
2022/10/18 09:42:48;;;;;;;1999.90;999.90;;;;;;;14.20;100.00;99042.69;4954800;28;20195;-74
2022/10/18 09:45:23;;;;;;;1999.90;999.90;;;;;;;14.11;100.00;99041.69;4955125;29;20110;-74
2022/10/18 09:48:12;;;;;;;1999.90;999.90;;;;;;;13.84;100.00;99047.75;4954669;28;20036;-74
2022/10/18 09:50:43;;;;;;;1999.90;999.90;;;;;;;13.84;100.00;99037.59;4955219;29;20039;-74
2022/10/18 09:53:10;;;;;;;1999.90;999.90;;;;;;;13.95;100.00;99036.38;4954718;29;20062;-74
2022/10/18 09:55:45;;;;;;;1999.90;999.90;;;;;;;14.19;100.00;99038.31;4954671;28;20027;-73
2022/10/18 09:58:12;;;;;;;1999.90;999.90;;;;;;;14.40;100.00;99037.84;4954754;29;20038;-73
2022/10/18 10:00:44;;;;;;;1999.90;999.90;;;;;;;14.51;100.00;99033.00;4955014;29;20042;-74
2022/10/18 10:03:16;;;;;;;1999.90;999.90;;;;;;;14.69;100.00;99042.44;4958806;29;20409;-75
2022/10/18 10:05:42;;;;;;;1999.90;999.90;;;;;;;14.71;100.00;99041.03;4961237;28;20034;-74
2022/10/18 10:08:08;;;;;;;1999.90;999.90;;;;;;;14.74;100.00;99026.66;4955028;28;20047;-74
2022/10/18 10:10:34;;;;;;;1999.90;999.90;;;;;;;14.76;100.00;99021.66;4954646;28;20034;-74
2022/10/18 10:13:14;;;;;;;1999.90;999.90;;;;;;;14.71;100.00;99024.50;4954340;28;20109;-75
2022/10/18 10:15:45;;;;;;;1999.90;999.90;;;;;;;14.72;100.00;99020.59;4954427;28;20023;-75
2022/10/18 10:18:24;;;;;;;1999.90;999.90;;;;;;;14.98;100.00;99015.56;4956407;29;20456;-75
2022/10/18 10:20:57;;;;;;;1999.90;999.90;;;;;;;14.83;100.00;99010.28;4957751;29;20047;-74
2022/10/18 10:23:35;;;;;;;1999.90;999.90;;;;;;;14.90;100.00;99010.72;4956654;28;20496;-74
2022/10/18 10:26:03;;;;;;;1999.90;999.90;;;;;;;14.99;100.00;99018.03;4956569;28;20086;-74
2022/10/18 10:28:42;;;;;;;1999.90;999.90;;;;;;;15.94;100.00;99009.28;4956170;28;20027;-74
2022/10/18 10:31:22;;;;;;;1999.90;999.90;;;;;;;17.00;100.00;99018.19;4954738;28;20042;-75
2022/10/18 10:33:58;;;;;;;1999.90;999.90;;;;;;;16.94;100.00;99011.16;4953861;29;20748;-74
2022/10/18 10:36:23;;;;;;;;;;;;;;;17.54;100.00;99019.13;4954463;29;20023;-74
2022/10/18 10:39:11;;;;;;;1999.90;999.90;;;;;;;17.49;100.00;99006.22;4953838;29;20272;-75
2022/10/18 10:41:39;;;;;;;1999.90;999.90;;;;;;;17.13;100.00;98991.66;4953785;28;20281;-73
2022/10/18 10:44:14;;;;;;;1999.90;999.90;;;;;;;17.01;100.00;98989.41;4953779;29;20118;-75
2022/10/18 10:46:40;;;;;;;1999.90;999.90;;;;;;;17.16;100.00;98990.19;4953802;28;20114;-75
2022/10/18 10:49:13;;;;;;;1999.90;999.90;;;;;;;17.34;100.00;98978.13;4953610;29;20133;-75
2022/10/18 10:51:39;;;;;;;1999.90;999.90;;;;;;;17.26;100.00;98982.44;4954140;28;20027;-74
2022/10/18 10:54:07;;;;;;;1999.90;999.90;;;;;;;17.52;100.00;98983.47;4953482;28;20492;-74
2022/10/18 10:56:36;;;;;;;1999.90;999.90;;;;;;;18.28;100.00;98980.63;4953613;28;20046;-75